Time;durP1;ratioP1;P1;durP2;ratioP2;P2;SDS_P1;SDS_P2;PMS_P1;PMS_P2;Temp;Humidity;BMP_temperature;BMP_pressure;BME280_temperature;BME280_humidity;BME280_pressure;Samples;Min_cycle;Max_cycle;Signal;HPM_P1;HPM_P2
2021/03/11 00:01:41;;;;;;;33.95;31.35;;;8.90;57.30;;;;;;5092537;28;20199;-75
2021/03/11 00:04:07;;;;;;;37.10;33.83;;;8.90;58.00;;;;;;5092352;28;20755;-75
2021/03/11 00:06:34;;;;;;;37.10;34.33;;;8.90;57.60;;;;;;5092295;28;20202;-75
2021/03/11 00:09:00;;;;;;;35.22;32.70;;;8.90;58.00;;;;;;5092309;28;20227;-75
2021/03/11 00:11:27;;;;;;;34.70;32.17;;;8.90;57.80;;;;;;5092389;28;20201;-75
2021/03/11 00:13:53;;;;;;;35.58;32.67;;;8.90;57.90;;;;;;5092467;28;20254;-75
2021/03/11 00:16:20;;;;;;;36.97;34.08;;;9.00;57.90;;;;;;5092151;28;20196;-75
2021/03/11 00:18:47;;;;;;;34.33;31.73;;;9.10;57.00;;;;;;5092449;28;20221;-75
2021/03/11 00:21:13;;;;;;;35.17;32.58;;;9.00;57.50;;;;;;5093374;28;20199;-78
2021/03/11 00:23:40;;;;;;;33.83;31.27;;;9.00;57.30;;;;;;5093320;28;20266;-78
2021/03/11 00:26:07;;;;;;;34.65;32.15;;;9.10;57.30;;;;;;5093714;28;20564;-78
2021/03/11 00:28:33;;;;;;;35.58;32.88;;;9.10;57.20;;;;;;5093184;28;20226;-78
2021/03/11 00:31:00;;;;;;;35.42;32.42;;;9.10;57.50;;;;;;5093743;28;20211;-78
2021/03/11 00:33:26;;;;;;;34.70;32.20;;;9.10;57.30;;;;;;5094224;28;20199;-78
2021/03/11 00:35:52;;;;;;;35.30;32.60;;;9.10;57.20;;;;;;5092834;28;20683;-78
2021/03/11 00:38:19;;;;;;;33.00;30.60;;;9.10;57.80;;;;;;5092769;28;20215;-78
2021/03/11 00:40:46;;;;;;;35.33;32.72;;;9.20;57.20;;;;;;5094160;28;20203;-76
2021/03/11 00:43:14;;;;;;;36.00;33.17;;;9.20;57.30;;;;;;5096086;28;20207;-76
2021/03/11 00:45:40;;;;;;;34.42;31.88;;;9.10;57.30;;;;;;5095791;28;20295;-75
2021/03/11 00:48:07;;;;;;;34.95;32.30;;;9.20;57.00;;;;;;5096091;28;20223;-76
2021/03/11 00:50:35;;;;;;;35.63;33.13;;;9.20;57.40;;;;;;5095910;28;20191;-75
2021/03/11 00:53:01;;;;;;;36.13;33.47;;;9.20;57.50;;;;;;5096092;28;20203;-75
2021/03/11 00:55:27;;;;;;;34.63;31.92;;;9.20;57.70;;;;;;5095852;28;20196;-77
2021/03/11 00:57:55;;;;;;;34.58;31.95;;;9.20;57.50;;;;;;5095966;28;20282;-75
2021/03/11 01:00:23;;;;;;;35.05;32.38;;;9.30;57.20;;;;;;5095616;28;20632;-75
2021/03/11 01:02:50;;;;;;;35.33;32.63;;;9.40;57.00;;;;;;5095695;28;20675;-76
2021/03/11 01:05:19;;;;;;;33.88;31.38;;;9.30;57.20;;;;;;5095707;28;20195;-75
2021/03/11 01:07:45;;;;;;;35.08;32.35;;;9.40;57.40;;;;;;5095405;28;20223;-75
2021/03/11 01:10:12;;;;;;;34.22;31.88;;;9.40;57.40;;;;;;5095396;28;20226;-76
2021/03/11 01:12:38;;;;;;;34.97;32.38;;;9.30;58.00;;;;;;5095461;28;20199;-75
2021/03/11 01:15:07;;;;;;;35.58;32.75;;;9.30;57.70;;;;;;5095577;28;20206;-77
2021/03/11 01:17:34;;;;;;;35.75;33.15;;;9.30;57.70;;;;;;5095286;28;20198;-75
2021/03/11 01:20:00;;;;;;;34.72;32.10;;;9.30;57.70;;;;;;5095384;28;20223;-75
2021/03/11 01:22:26;;;;;;;35.22;32.42;;;9.20;58.10;;;;;;5095629;28;20210;-75
2021/03/11 01:24:53;;;;;;;35.92;33.13;;;9.30;58.20;;;;;;5095489;28;20225;-75
2021/03/11 01:27:19;;;;;;;35.42;32.35;;;9.40;57.90;;;;;;5094973;28;20196;-76
2021/03/11 01:29:46;;;;;;;34.88;32.22;;;9.40;58.00;;;;;;5095110;28;20233;-75
2021/03/11 01:32:13;;;;;;;34.47;31.88;;;9.40;57.90;;;;;;5094955;28;20272;-75
2021/03/11 01:34:39;;;;;;;35.10;32.40;;;9.40;58.20;;;;;;5095197;28;20206;-75
2021/03/11 01:37:06;;;;;;;33.70;31.10;;;9.40;58.10;;;;;;5095083;28;20200;-77
2021/03/11 01:39:32;;;;;;;33.25;30.85;;;9.30;58.40;;;;;;5095026;28;20302;-78
2021/03/11 01:41:58;;;;;;;32.53;30.20;;;9.40;59.50;;;;;;5095578;28;20661;-78
2021/03/11 01:44:25;;;;;;;33.15;30.55;;;9.40;59.00;;;;;;5094741;28;20201;-75
2021/03/11 01:46:51;;;;;;;32.70;30.40;;;9.30;60.60;;;;;;5094748;28;20199;-76
2021/03/11 01:49:18;;;;;;;33.30;30.95;;;9.30;59.90;;;;;;5094588;28;20219;-76
2021/03/11 01:51:46;;;;;;;31.90;29.67;;;9.30;59.60;;;;;;5093901;28;20233;-75
2021/03/11 01:54:13;;;;;;;33.00;30.73;;;9.30;59.40;;;;;;5094927;28;20192;-75
2021/03/11 01:56:41;;;;;;;32.47;30.13;;;9.40;60.00;;;;;;5094412;28;20195;-76
2021/03/11 01:59:07;;;;;;;31.35;29.15;;;9.40;59.60;;;;;;5094729;28;20696;-76
2021/03/11 02:01:34;;;;;;;28.75;26.80;;;9.40;59.70;;;;;;5094607;28;20557;-75
2021/03/11 02:04:00;;;;;;;28.70;26.90;;;9.40;60.60;;;;;;5094140;28;20572;-75
2021/03/11 02:06:27;;;;;;;28.60;26.80;;;9.50;60.80;;;;;;5094328;28;20199;-75
2021/03/11 02:08:54;;;;;;;30.10;28.00;;;9.50;60.80;;;;;;5094117;28;20219;-76
2021/03/11 02:11:24;;;;;;;29.20;27.20;;;9.50;61.20;;;;;;5094361;28;20194;-75
2021/03/11 02:13:56;;;;;;;28.23;26.33;;;9.50;61.10;;;;;;5094377;28;20205;-75
2021/03/11 02:16:30;;;;;;;28.38;26.48;;;9.60;61.20;;;;;;5094147;28;20199;-75
2021/03/11 02:19:03;;;;;;;28.55;26.75;;;9.50;61.50;;;;;;5094151;28;20234;-75
2021/03/11 02:21:39;;;;;;;28.50;26.63;;;9.60;61.40;;;;;;5094205;28;20362;-75
2021/03/11 02:24:37;;;;;;;28.02;26.33;;;9.50;61.50;;;;;;5094176;28;20199;-75
2021/03/11 02:27:24;;;;;;;27.85;26.15;;;9.60;61.50;;;;;;5093959;28;20199;-75
2021/03/11 02:29:53;;;;;;;28.45;26.55;;;9.60;61.40;;;;;;5093864;28;20586;-75
2021/03/11 02:32:20;;;;;;;29.73;27.92;;;9.70;61.20;;;;;;5094002;28;20203;-75
2021/03/11 02:34:48;;;;;;;29.02;27.23;;;9.60;61.50;;;;;;5093814;28;20191;-75
2021/03/11 02:37:20;;;;;;;28.55;26.75;;;9.50;61.80;;;;;;5093661;28;20195;-75
2021/03/11 02:39:54;;;;;;;28.13;26.33;;;9.40;62.80;;;;;;5093713;28;20573;-75
2021/03/11 02:42:22;;;;;;;29.38;27.48;;;9.40;62.80;;;;;;5093764;28;20282;-75
2021/03/11 02:44:50;;;;;;;30.02;28.02;;;9.40;62.20;;;;;;5093334;28;20199;-75
2021/03/11 02:47:17;;;;;;;29.75;27.83;;;9.50;61.90;;;;;;5093729;28;20217;-75
2021/03/11 02:49:45;;;;;;;29.33;27.30;;;9.50;61.20;;;;;;5093551;28;20268;-76
2021/03/11 02:52:12;;;;;;;28.60;26.70;;;9.60;61.20;;;;;;5093612;28;20627;-75
2021/03/11 02:54:39;;;;;;;28.55;26.58;;;9.60;63.40;;;;;;5093654;28;20222;-76
2021/03/11 02:57:08;;;;;;;29.38;27.38;;;9.50;64.60;;;;;;5093747;28;20230;-76
2021/03/11 02:59:36;;;;;;;29.77;27.48;;;9.40;62.30;;;;;;5093405;28;20233;-76
2021/03/11 03:02:04;;;;;;;30.13;28.08;;;9.40;61.40;;;;;;5093498;28;20198;-76
2021/03/11 03:04:32;;;;;;;30.38;28.33;;;9.40;61.30;;;;;;5093082;28;20211;-76
2021/03/11 03:07:00;;;;;;;31.17;28.92;;;9.40;60.80;;;;;;5093033;28;20187;-75
2021/03/11 03:09:27;;;;;;;30.08;28.08;;;9.50;60.60;;;;;;5093117;28;20227;-75
2021/03/11 03:11:55;;;;;;;30.63;28.63;;;9.50;60.80;;;;;;5093226;28;20207;-75
2021/03/11 03:14:22;;;;;;;30.05;27.95;;;9.50;61.30;;;;;;5093356;28;20203;-75
2021/03/11 03:16:49;;;;;;;30.30;28.30;;;9.50;60.60;;;;;;5092894;28;20199;-75
2021/03/11 03:19:16;;;;;;;31.30;29.17;;;9.60;60.30;;;;;;5093141;28;20211;-75
2021/03/11 03:21:44;;;;;;;31.35;28.92;;;9.50;60.40;;;;;;5092998;28;20238;-75
2021/03/11 03:24:12;;;;;;;30.40;28.30;;;9.50;60.20;;;;;;5093079;28;20268;-75
2021/03/11 03:26:39;;;;;;;29.85;27.85;;;9.50;60.20;;;;;;5092955;28;20205;-75
2021/03/11 03:29:06;;;;;;;29.48;27.48;;;9.50;61.20;;;;;;5092816;28;20292;-75
2021/03/11 03:31:32;;;;;;;30.98;28.77;;;9.50;60.20;;;;;;5092940;28;20661;-75
2021/03/11 03:33:59;;;;;;;29.02;27.13;;;9.50;60.50;;;;;;5093131;28;20195;-75
2021/03/11 03:36:25;;;;;;;30.10;28.15;;;9.50;60.80;;;;;;5092747;28;20203;-75
2021/03/11 03:38:54;;;;;;;28.48;26.58;;;9.40;61.30;;;;;;5092782;28;20211;-75
2021/03/11 03:41:21;;;;;;;29.10;27.17;;;9.50;61.10;;;;;;5092860;28;20196;-75
2021/03/11 03:43:49;;;;;;;29.83;27.70;;;9.50;61.80;;;;;;5092491;28;20203;-75
2021/03/11 03:46:19;;;;;;;30.10;27.80;;;9.50;62.00;;;;;;5092602;28;20237;-75
2021/03/11 03:48:53;;;;;;;29.45;27.65;;;9.50;62.50;;;;;;5092567;28;20223;-75
2021/03/11 03:51:23;;;;;;;29.27;27.08;;;9.50;62.00;;;;;;5092550;28;20203;-75
2021/03/11 03:53:54;;;;;;;29.63;27.52;;;9.50;61.80;;;;;;5092792;28;20626;-75
2021/03/11 03:56:25;;;;;;;29.63;27.70;;;9.50;62.00;;;;;;5092605;28;20191;-75
2021/03/11 03:58:55;;;;;;;29.67;27.67;;;9.60;61.70;;;;;;5092673;28;20573;-75
2021/03/11 04:01:22;;;;;;;29.00;27.20;;;9.60;61.60;;;;;;5092597;28;20199;-78
2021/03/11 04:03:50;;;;;;;28.30;26.50;;;9.60;61.90;;;;;;5092547;28;20256;-78
2021/03/11 04:06:17;;;;;;;27.92;25.98;;;9.60;62.20;;;;;;5092465;28;20206;-78
2021/03/11 04:08:46;;;;;;;29.92;27.92;;;9.80;61.90;;;;;;5092509;28;20709;-78
2021/03/11 04:11:16;;;;;;;31.67;29.67;;;9.70;62.10;;;;;;5092531;28;20227;-78
2021/03/11 04:13:43;;;;;;;28.77;26.60;;;9.80;62.50;;;;;;5092593;28;20268;-78
2021/03/11 04:16:10;;;;;;;28.02;26.17;;;9.80;63.20;;;;;;5094767;28;20653;-78
2021/03/11 04:18:36;;;;;;;27.67;25.98;;;9.90;63.90;;;;;;5096538;28;20215;-78
2021/03/11 04:21:05;;;;;;;26.70;25.10;;;10.10;64.00;;;;;;5096637;28;20195;-78
2021/03/11 04:23:33;;;;;;;28.00;26.20;;;10.10;64.50;;;;;;5096538;28;20272;-78
2021/03/11 04:25:59;;;;;;;27.00;25.30;;;10.20;64.60;;;;;;5096437;28;20285;-77
2021/03/11 04:28:26;;;;;;;26.90;25.20;;;10.30;64.70;;;;;;5096850;28;20574;-78
2021/03/11 04:30:53;;;;;;;28.88;27.15;;;10.30;64.90;;;;;;5097635;28;20199;-78
2021/03/11 04:33:20;;;;;;;26.85;25.25;;;10.40;65.00;;;;;;5097537;28;20353;-78
2021/03/11 04:35:46;;;;;;;27.35;25.58;;;10.50;65.00;;;;;;5096905;28;20228;-77
2021/03/11 04:38:14;;;;;;;29.50;27.80;;;10.50;65.00;;;;;;5096330;28;20192;-78
2021/03/11 04:40:41;;;;;;;27.95;25.92;;;10.60;65.30;;;;;;5096252;28;20199;-78
2021/03/11 04:43:08;;;;;;;28.95;26.92;;;10.70;64.60;;;;;;5096130;28;20572;-78
2021/03/11 04:45:35;;;;;;;27.17;25.38;;;10.70;64.60;;;;;;5095561;28;20199;-77
2021/03/11 04:48:03;;;;;;;27.38;25.77;;;10.70;64.60;;;;;;5096026;28;20654;-78
2021/03/11 04:50:30;;;;;;;27.48;25.77;;;10.70;64.80;;;;;;5095821;28;20285;-78
2021/03/11 04:52:58;;;;;;;26.35;24.85;;;10.70;65.00;;;;;;5095945;28;20199;-78
2021/03/11 04:55:24;;;;;;;26.08;24.48;;;10.70;65.00;;;;;;5095849;28;20199;-78
2021/03/11 04:57:52;;;;;;;29.50;27.27;;;10.80;65.10;;;;;;5095621;28;20267;-78
2021/03/11 05:00:19;;;;;;;27.52;25.92;;;10.80;65.00;;;;;;5095855;28;20215;-78
2021/03/11 05:02:48;;;;;;;28.20;26.60;;;10.80;65.00;;;;;;5095735;28;20617;-78
2021/03/11 05:05:30;;;;;;;27.40;25.70;;;10.80;65.20;;;;;;5095654;28;20195;-77
2021/03/11 05:07:57;;;;;;;28.15;26.45;;;10.80;65.30;;;;;;5095566;28;20211;-78
2021/03/11 05:10:23;;;;;;;27.50;25.80;;;10.80;65.40;;;;;;5095577;28;20744;-78
2021/03/11 05:12:49;;;;;;;27.05;24.80;;;10.80;65.60;;;;;;5095587;28;20199;-78
2021/03/11 05:15:16;;;;;;;27.40;25.80;;;10.80;66.00;;;;;;5095684;28;20210;-78
2021/03/11 05:17:42;;;;;;;27.42;25.08;;;10.80;65.70;;;;;;5095745;28;20202;-78
2021/03/11 05:20:11;;;;;;;26.70;25.10;;;10.90;65.60;;;;;;5095792;28;20223;-78
2021/03/11 05:22:38;;;;;;;27.42;25.73;;;10.90;65.60;;;;;;5095365;28;20207;-78
2021/03/11 05:25:06;;;;;;;28.80;26.70;;;10.90;65.60;;;;;;5095430;28;20199;-78
2021/03/11 05:27:32;;;;;;;27.23;25.42;;;10.80;65.80;;;;;;5094925;28;20306;-78
2021/03/11 05:29:59;;;;;;;27.33;25.83;;;10.80;65.80;;;;;;5095398;28;20306;-78
2021/03/11 05:32:25;;;;;;;25.95;24.30;;;10.80;65.90;;;;;;5095202;28;20198;-78
2021/03/11 05:34:51;;;;;;;27.77;25.98;;;10.80;66.00;;;;;;5095247;28;20231;-78
2021/03/11 05:37:18;;;;;;;29.15;27.23;;;10.80;66.10;;;;;;5094890;28;20195;-78
2021/03/11 05:39:45;;;;;;;26.35;24.77;;;10.80;66.40;;;;;;5095013;28;20693;-78
2021/03/11 05:42:12;;;;;;;28.23;26.33;;;10.70;66.50;;;;;;5095060;28;20191;-78
2021/03/11 05:44:39;;;;;;;26.00;24.50;;;10.70;66.90;;;;;;5094728;28;20278;-78
2021/03/11 05:47:07;;;;;;;27.85;26.27;;;10.70;67.00;;;;;;5094756;28;20286;-78
2021/03/11 05:49:34;;;;;;;26.05;24.55;;;10.60;67.30;;;;;;5094465;28;20237;-77
2021/03/11 05:52:01;;;;;;;26.10;24.58;;;10.70;67.30;;;;;;5094788;28;20209;-78
2021/03/11 05:54:29;;;;;;;26.90;25.23;;;10.60;67.30;;;;;;5094703;28;20199;-78
2021/03/11 05:56:55;;;;;;;26.35;24.75;;;10.70;67.40;;;;;;5094535;28;20206;-78
2021/03/11 05:59:22;;;;;;;27.58;25.88;;;10.60;67.60;;;;;;5094631;28;20700;-78
2021/03/11 06:01:48;;;;;;;25.30;23.77;;;10.60;67.70;;;;;;5094602;28;20256;-78
2021/03/11 06:04:16;;;;;;;26.50;24.70;;;10.70;67.60;;;;;;5094353;28;20211;-78
2021/03/11 06:06:43;;;;;;;25.95;24.45;;;10.80;67.40;;;;;;5094378;28;20198;-78
2021/03/11 06:09:10;;;;;;;26.40;24.70;;;10.80;67.30;;;;;;5094377;28;20768;-78
2021/03/11 06:11:38;;;;;;;25.40;23.90;;;10.80;67.50;;;;;;5094429;28;20770;-78
2021/03/11 06:14:07;;;;;;;26.67;25.02;;;10.80;67.50;;;;;;5094416;28;20199;-78
2021/03/11 06:16:37;;;;;;;26.42;24.83;;;10.80;67.50;;;;;;5094102;28;20657;-78
2021/03/11 06:19:03;;;;;;;26.05;24.50;;;10.80;67.70;;;;;;5094291;28;20652;-78
2021/03/11 06:21:31;;;;;;;27.13;25.40;;;10.80;67.90;;;;;;5094285;28;20195;-78
2021/03/11 06:23:57;;;;;;;26.23;24.52;;;10.80;67.90;;;;;;5094310;28;20221;-78
2021/03/11 06:26:23;;;;;;;27.70;26.00;;;10.80;67.90;;;;;;5094043;28;20199;-78
2021/03/11 06:28:53;;;;;;;26.63;24.83;;;10.80;68.00;;;;;;5094083;28;20227;-78
2021/03/11 06:31:20;;;;;;;26.10;24.55;;;10.80;68.10;;;;;;5094223;28;20460;-78
2021/03/11 06:33:48;;;;;;;26.05;24.55;;;10.90;67.80;;;;;;5093964;28;20203;-78
2021/03/11 06:36:15;;;;;;;25.85;24.30;;;10.90;67.80;;;;;;5093884;28;20199;-78
2021/03/11 06:38:41;;;;;;;26.05;24.48;;;10.80;67.80;;;;;;5093461;28;20715;-78
2021/03/11 06:41:08;;;;;;;27.52;25.75;;;10.90;67.60;;;;;;5093940;28;20195;-78
2021/03/11 06:43:34;;;;;;;27.42;25.70;;;11.00;67.10;;;;;;5093901;28;20195;-78
2021/03/11 06:46:09;;;;;;;27.42;25.35;;;11.10;66.80;;;;;;5093255;28;20209;-78
2021/03/11 06:48:35;;;;;;;26.88;25.25;;;11.10;66.50;;;;;;5093675;28;20222;-78
2021/03/11 06:51:03;;;;;;;25.55;24.10;;;11.10;66.40;;;;;;5093688;28;20272;-78
2021/03/11 06:53:30;;;;;;;25.77;24.17;;;11.20;66.20;;;;;;5093721;28;20263;-78
2021/03/11 06:56:18;;;;;;;24.98;23.38;;;11.30;65.90;;;;;;5093676;28;20530;-78
2021/03/11 06:58:54;;;;;;;27.13;25.63;;;11.30;65.80;;;;;;5093546;28;20221;-78
2021/03/11 07:01:23;;;;;;;25.83;24.43;;;11.40;65.50;;;;;;5093718;28;20453;-78
2021/03/11 07:03:49;;;;;;;26.00;24.33;;;11.40;65.40;;;;;;5093467;28;20876;-78
2021/03/11 07:06:30;;;;;;;24.70;23.30;;;11.50;65.00;;;;;;5093418;28;20195;-78
2021/03/11 07:08:57;;;;;;;24.47;22.83;;;11.60;65.00;;;;;;5093755;28;20579;-78
2021/03/11 07:11:24;;;;;;;26.97;25.33;;;11.60;64.80;;;;;;5093752;28;20901;-78
2021/03/11 07:13:51;;;;;;;25.53;23.93;;;11.70;64.70;;;;;;5093539;28;20449;-78
2021/03/11 07:16:19;;;;;;;29.03;27.17;;;11.80;64.30;;;;;;5093180;28;20831;-77
2021/03/11 07:18:47;;;;;;;27.43;25.83;;;11.90;64.30;;;;;;5093235;28;20651;-78
2021/03/11 07:21:14;;;;;;;26.00;24.40;;;11.80;64.30;;;;;;5093192;28;20449;-78
2021/03/11 07:23:44;;;;;;;24.37;23.07;;;11.90;64.30;;;;;;5093151;28;20939;-78
2021/03/11 07:26:11;;;;;;;25.33;23.83;;;12.00;64.10;;;;;;5092903;28;20532;-78
2021/03/11 07:28:37;;;;;;;25.80;24.30;;;12.00;64.00;;;;;;5093074;28;20488;-78
2021/03/11 07:31:04;;;;;;;25.50;24.00;;;12.10;63.70;;;;;;5093120;28;20457;-78
2021/03/11 07:33:32;;;;;;;25.60;24.10;;;12.20;63.80;;;;;;5093247;28;20601;-78
2021/03/11 07:36:02;;;;;;;26.00;24.40;;;12.10;63.90;;;;;;5092943;28;20449;-77
2021/03/11 07:38:30;;;;;;;25.77;24.27;;;12.20;64.10;;;;;;5092974;28;20465;-78
2021/03/11 07:40:59;;;;;;;25.30;23.80;;;12.30;63.90;;;;;;5092954;28;20460;-78
2021/03/11 07:43:27;;;;;;;26.10;24.63;;;12.40;63.80;;;;;;5092797;28;20449;-78
2021/03/11 07:45:55;;;;;;;25.67;24.17;;;12.40;63.90;;;;;;5092641;28;20820;-78
2021/03/11 07:48:22;;;;;;;25.30;23.70;;;12.50;63.60;;;;;;5092782;28;20477;-78
2021/03/11 07:50:50;;;;;;;24.93;23.47;;;12.50;63.60;;;;;;5091605;28;20453;-78
2021/03/11 07:53:20;;;;;;;26.23;24.60;;;12.60;63.40;;;;;;5092619;28;20449;-78
2021/03/11 07:55:47;;;;;;;25.10;23.63;;;12.70;63.20;;;;;;5092714;28;20457;-78
2021/03/11 07:58:18;;;;;;;25.13;23.63;;;12.90;63.10;;;;;;5092675;28;20931;-78
2021/03/11 08:00:45;;;;;;;25.67;24.20;;;12.90;63.00;;;;;;5092679;28;20445;-78
2021/03/11 08:03:15;;;;;;;25.60;24.10;;;13.00;62.80;;;;;;5092447;28;20456;-78
2021/03/11 08:05:42;;;;;;;25.97;24.67;;;13.10;62.60;;;;;;5092723;28;20453;-78
2021/03/11 08:08:17;;;;;;;25.63;24.03;;;13.10;62.50;;;;;;5092518;28;20469;-78
2021/03/11 08:10:45;;;;;;;25.07;23.67;;;13.20;62.20;;;;;;5092609;28;20521;-78
2021/03/11 08:13:35;;;;;;;25.13;23.83;;;13.30;62.20;;;;;;5092587;28;20481;-76
2021/03/11 08:16:21;;;;;;;25.37;23.70;;;13.40;61.80;;;;;;5092513;28;20506;-76
2021/03/11 08:18:48;;;;;;;25.10;23.70;;;13.40;61.70;;;;;;5092303;28;20469;-76
2021/03/11 08:21:42;;;;;;;25.60;24.10;;;13.50;61.70;;;;;;5092419;28;20445;-76
2021/03/11 08:24:38;;;;;;;25.73;24.23;;;13.50;61.60;;;;;;5092385;28;20460;-76
2021/03/11 08:27:43;;;;;;;25.10;23.60;;;13.70;61.20;;;;;;5090557;28;20449;-75
2021/03/11 08:30:50;;;;;;;26.00;24.50;;;13.80;61.00;;;;;;5092314;28;20481;-76
2021/03/11 08:33:54;;;;;;;24.70;23.33;;;13.90;60.60;;;;;;5092389;28;20453;-76
2021/03/11 08:36:39;;;;;;;25.20;23.70;;;13.90;60.30;;;;;;5092096;28;20437;-76
2021/03/11 08:39:31;;;;;;;25.33;23.90;;;14.10;60.00;;;;;;5092343;28;20468;-76
2021/03/11 08:41:57;;;;;;;23.93;22.60;;;14.10;59.80;;;;;;5084154;28;20457;-76
2021/03/11 08:44:44;;;;;;;24.57;23.07;;;14.20;59.80;;;;;;5092085;28;20461;-77
2021/03/11 08:47:11;;;;;;;24.70;23.30;;;14.30;59.70;;;;;;5092141;28;20472;-78
2021/03/11 08:49:43;;;;;;;26.13;24.57;;;14.30;59.50;;;;;;5092060;28;20477;-78
2021/03/11 08:52:41;;;;;;;25.17;23.77;;;14.40;59.50;;;;;;5092532;28;20471;-78
2021/03/11 08:55:33;;;;;;;24.50;23.07;;;14.50;59.40;;;;;;5092317;28;20999;-78
2021/03/11 08:58:00;;;;;;;24.30;22.90;;;14.60;59.60;;;;;;5092258;28;20445;-78
2021/03/11 09:00:59;;;;;;;24.43;23.03;;;14.60;59.80;;;;;;5092675;28;20521;-78
2021/03/11 09:03:36;;;;;;;26.00;24.50;;;14.50;60.30;;;;;;5095982;28;20968;-78
2021/03/11 09:06:03;;;;;;;25.67;24.00;;;14.60;60.50;;;;;;5096537;28;20448;-79
2021/03/11 09:08:30;;;;;;;25.90;24.30;;;14.80;60.20;;;;;;5096409;28;20477;-78
2021/03/11 09:11:10;;;;;;;27.47;26.17;;;14.90;59.80;;;;;;5096402;28;20455;-78
2021/03/11 09:13:40;;;;;;;26.07;24.77;;;14.90;59.80;;;;;;5096845;28;20514;-78
2021/03/11 09:16:07;;;;;;;24.60;23.20;;;15.00;59.80;;;;;;5097444;28;20452;-78
2021/03/11 09:18:34;;;;;;;26.23;24.80;;;15.10;59.80;;;;;;5095919;28;20515;-78
2021/03/11 09:21:01;;;;;;;25.53;23.93;;;15.10;59.50;;;;;;5095787;28;20453;-78
2021/03/11 09:23:35;;;;;;;27.23;25.73;;;15.10;59.60;;;;;;5096131;28;20488;-79
2021/03/11 09:26:01;;;;;;;25.27;23.87;;;15.10;59.40;;;;;;5096085;28;20455;-78
2021/03/11 09:28:27;;;;;;;24.57;23.27;;;15.10;59.30;;;;;;5095731;28;20493;-79
2021/03/11 09:30:54;;;;;;;24.80;23.40;;;15.20;59.30;;;;;;5097503;28;20484;-78
2021/03/11 09:33:22;;;;;;;25.73;24.43;;;15.10;59.40;;;;;;5097866;28;20459;-78
2021/03/11 09:35:49;;;;;;;24.57;22.97;;;15.20;59.30;;;;;;5095707;28;20453;-78
2021/03/11 09:38:21;;;;;;;23.40;22.10;;;15.30;58.80;;;;;;5095614;28;20453;-78
2021/03/11 09:40:49;;;;;;;24.63;23.10;;;15.30;58.90;;;;;;5095485;28;20461;-78
2021/03/11 09:43:21;;;;;;;23.23;22.03;;;15.40;58.90;;;;;;5096059;28;20552;-78
2021/03/11 09:45:53;;;;;;;24.00;22.70;;;15.50;58.60;;;;;;5095686;28;20493;-79
2021/03/11 09:48:24;;;;;;;23.80;22.60;;;15.50;58.20;;;;;;5096409;28;20476;-78
2021/03/11 09:51:00;;;;;;;24.10;22.80;;;15.60;58.50;;;;;;5096389;28;20445;-79
2021/03/11 09:53:33;;;;;;;23.77;22.37;;;15.60;58.20;;;;;;5096454;28;20513;-79
2021/03/11 09:56:00;;;;;;;23.97;22.67;;;15.60;58.20;;;;;;5095397;28;20969;-78
2021/03/11 09:58:27;;;;;;;23.97;22.57;;;15.80;58.00;;;;;;5095244;28;20476;-78
2021/03/11 10:00:54;;;;;;;24.50;22.90;;;15.90;57.90;;;;;;5094775;28;20853;-79
2021/03/11 10:03:23;;;;;;;26.43;25.13;;;15.90;57.90;;;;;;5094658;28;20490;-78
2021/03/11 10:05:56;;;;;;;24.90;23.20;;;15.80;58.10;;;;;;5094610;28;20468;-79
2021/03/11 10:08:32;;;;;;;24.40;23.03;;;15.70;58.30;;;;;;5094565;28;20824;-78
2021/03/11 10:11:10;;;;;;;24.10;22.80;;;15.70;58.50;;;;;;5094733;28;20544;-78
2021/03/11 10:13:38;;;;;;;24.93;23.43;;;15.70;58.90;;;;;;5093904;28;20453;-78
2021/03/11 10:16:05;;;;;;;24.27;22.80;;;15.70;59.20;;;;;;5094820;28;20599;-78
2021/03/11 10:18:33;;;;;;;24.50;23.07;;;15.80;59.10;;;;;;5095536;28;20492;-78
2021/03/11 10:21:02;;;;;;;25.27;23.80;;;16.00;59.10;;;;;;5095617;28;20509;-78
2021/03/11 10:23:28;;;;;;;26.17;24.60;;;16.10;58.60;;;;;;5096213;28;20488;-78
2021/03/11 10:26:14;;;;;;;24.80;22.83;;;16.40;58.20;;;;;;5095875;28;20453;-78
2021/03/11 10:28:43;;;;;;;24.10;22.70;;;16.60;57.60;;;;;;5095961;28;20482;-78
2021/03/11 10:31:11;;;;;;;24.20;22.90;;;16.60;57.60;;;;;;5095150;28;20449;-79
2021/03/11 10:33:39;;;;;;;24.93;23.60;;;16.50;58.10;;;;;;5093970;28;20463;-76
2021/03/11 10:36:17;;;;;;;24.53;23.17;;;16.60;58.10;;;;;;5093873;28;20536;-75
2021/03/11 10:39:05;;;;;;;24.20;22.80;;;16.60;58.20;;;;;;5093898;28;20541;-76
2021/03/11 10:41:32;;;;;;;24.67;23.27;;;16.50;58.80;;;;;;5093874;28;20453;-76
2021/03/11 10:44:11;;;;;;;24.53;23.23;;;16.40;59.50;;;;;;5093635;28;20484;-76
2021/03/11 10:46:37;;;;;;;24.20;23.00;;;16.40;59.70;;;;;;5093581;28;20799;-76
2021/03/11 10:49:04;;;;;;;24.47;23.13;;;16.40;59.90;;;;;;5093528;28;20484;-75
2021/03/11 10:51:32;;;;;;;24.63;23.33;;;16.40;59.90;;;;;;5093525;28;20546;-76
2021/03/11 10:53:59;;;;;;;24.23;22.83;;;16.30;60.20;;;;;;5093773;28;20834;-76
2021/03/11 10:56:26;;;;;;;24.30;23.00;;;16.20;60.70;;;;;;5093376;28;20449;-76
2021/03/11 10:59:05;;;;;;;24.10;22.90;;;16.00;61.20;;;;;;5093474;28;20525;-76
2021/03/11 11:01:32;;;;;;;25.03;23.73;;;15.90;62.00;;;;;;5093433;28;20453;-76
2021/03/11 11:04:00;;;;;;;25.40;23.90;;;15.70;62.60;;;;;;5093356;28;20496;-76
2021/03/11 11:06:29;;;;;;;24.43;23.13;;;15.70;63.10;;;;;;5093148;28;20978;-76
2021/03/11 11:08:56;;;;;;;23.80;22.60;;;15.50;63.50;;;;;;5093248;28;20516;-76
2021/03/11 11:11:23;;;;;;;24.57;23.23;;;15.40;64.10;;;;;;5093479;28;20942;-79
2021/03/11 11:13:50;;;;;;;26.60;24.60;;;15.30;65.60;;;;;;5093365;28;20930;-78
2021/03/11 11:16:18;;;;;;;25.40;23.93;;;15.20;67.40;;;;;;5093720;28;20456;-78
2021/03/11 11:18:44;;;;;;;24.13;22.63;;;15.10;68.70;;;;;;5093768;28;20483;-78
2021/03/11 11:21:11;;;;;;;23.33;22.20;;;15.10;70.00;;;;;;5094000;28;20485;-78
2021/03/11 11:23:39;;;;;;;25.73;23.97;;;15.00;69.90;;;;;;5094318;28;20453;-79
2021/03/11 11:26:05;;;;;;;24.60;23.30;;;14.90;71.40;;;;;;5093693;28;20968;-78
2021/03/11 11:28:31;;;;;;;23.27;22.07;;;14.80;71.80;;;;;;5093659;28;20564;-78
2021/03/11 11:30:58;;;;;;;24.10;22.90;;;14.70;72.60;;;;;;5094344;28;20529;-78
2021/03/11 11:33:24;;;;;;;23.73;22.53;;;14.70;73.30;;;;;;5094543;28;20449;-78
2021/03/11 11:35:51;;;;;;;22.93;21.57;;;14.40;74.20;;;;;;5094616;28;20456;-78
2021/03/11 11:38:18;;;;;;;23.30;22.10;;;14.50;74.90;;;;;;5094387;28;20445;-79
2021/03/11 11:40:45;;;;;;;22.83;21.60;;;14.50;74.80;;;;;;5094266;28;21006;-78
2021/03/11 11:43:12;;;;;;;22.57;21.47;;;14.50;74.40;;;;;;5094080;28;20449;-78
2021/03/11 11:45:38;;;;;;;23.67;22.57;;;14.50;74.70;;;;;;5092710;28;20789;-78
2021/03/11 11:48:05;;;;;;;22.50;21.30;;;14.50;74.90;;;;;;5092951;28;21037;-78
2021/03/11 11:50:32;;;;;;;22.73;21.53;;;14.50;74.70;;;;;;5093813;28;20475;-79
2021/03/11 11:56:21;;;;;;;23.00;21.70;;;14.40;75.90;;;;;;5093144;28;20452;-78
2021/03/11 11:58:48;;;;;;;22.80;21.50;;;14.40;75.70;;;;;;5093841;28;20469;-78
2021/03/11 12:01:15;;;;;;;24.53;23.20;;;14.40;76.00;;;;;;5093611;28;20537;-78
2021/03/11 12:03:41;;;;;;;22.57;21.47;;;14.50;76.20;;;;;;5093447;28;20465;-78
2021/03/11 12:06:08;;;;;;;23.77;22.37;;;14.70;75.60;;;;;;5093092;28;20445;-78
2021/03/11 12:08:35;;;;;;;22.30;21.20;;;14.80;75.60;;;;;;5094535;28;20516;-78
2021/03/11 12:11:02;;;;;;;22.93;21.83;;;15.00;75.70;;;;;;5094080;28;20461;-78
2021/03/11 12:13:29;;;;;;;23.37;22.17;;;15.10;74.90;;;;;;5094480;28;20535;-78
2021/03/11 12:15:56;;;;;;;23.00;21.73;;;15.30;74.00;;;;;;5094308;28;20445;-78
2021/03/11 12:18:22;;;;;;;23.70;22.30;;;15.30;74.20;;;;;;5094749;28;20975;-78
2021/03/11 12:20:48;;;;;;;23.13;22.00;;;15.40;73.00;;;;;;5093427;28;20449;-78
2021/03/11 12:23:15;;;;;;;22.93;21.73;;;15.20;73.70;;;;;;5093361;28;20560;-78
2021/03/11 12:25:42;;;;;;;22.60;21.40;;;15.30;74.40;;;;;;5096411;28;20939;-78
2021/03/11 12:28:08;;;;;;;22.57;21.40;;;15.10;74.80;;;;;;5106559;28;20492;-76
2021/03/11 12:30:36;;;;;;;23.87;22.67;;;15.20;74.30;;;;;;5103433;28;20494;-77
2021/03/11 12:33:03;;;;;;;23.33;22.13;;;15.30;74.10;;;;;;5103383;28;20445;-76
2021/03/11 12:35:29;;;;;;;22.33;21.20;;;15.40;74.20;;;;;;5103740;28;20445;-76
2021/03/11 12:37:56;;;;;;;22.33;21.23;;;15.40;74.00;;;;;;5108098;28;20961;-76
2021/03/11 12:40:24;;;;;;;22.00;20.80;;;15.50;73.60;;;;;;5099492;28;20475;-76
2021/03/11 12:42:50;;;;;;;22.30;21.20;;;15.50;73.70;;;;;;5096384;28;20453;-76
2021/03/11 12:45:18;;;;;;;22.93;21.73;;;15.50;73.10;;;;;;5096179;28;20946;-76